Bretagne — FNBR — position and weather

sailwx.info

Track history (hours):
 
Tides and Currents Weather Stations Pressure Air Temp Water Temp Dewpoint Dewpoint Depression Visibility Wind Speed Wind Dir Waves Ship Positions

Bretagne

Operator: Brittany Ferries

Last reported at 2015-Jul-04 21:33 UTC. Time now 2015-Jul-04 22:26 UTC.
Position N 50°27' W 001°17'.

Length 151 m; beam 27 m.

Type: Ship. MMSI: 227286000.

Date/timePositionNaut miles runAvg speedWind from/ knotsBaromVisibWave heightAir tempDewpointWater temp
2015-Jul-04 21:33N 50°27' W 001°17'1212.2
2015-Jul-04 20:33N 50°38' W 001°07'1111.0
2015-Jul-04 19:33N 50°49' W 001°06'0 0.4
2015-Jul-04 18:30N 50°49' W 001°06'0 0.0
2015-Jul-04 17:32N 50°49' W 001°06'7 7.7
2015-Jul-04 16:33N 50°42' W 001°03'1716.7
2015-Jul-04 15:33N 50°26' W 001°12'10910.9
2015-Jul-04 05:32N 48°42' W 002°07'1819.0
2015-Jul-04 04:33N 48°58' W 002°21'1414.0
2015-Jul-04 03:33N 49°12' W 002°22'1413.9
2015-Jul-04 02:33N 49°25' W 002°15'1514.4
2015-Jul-04 01:30N 49°39' W 002°05'1314.3
2015-Jul-04 00:33N 49°51' W 001°57'4013.5
2015-Jul-03 21:33N 50°24' W 001°20'1313.3
2015-Jul-03 20:34N 50°35' W 001°09'1212.1
2015-Jul-03 19:33N 50°47' W 001°07'1 1.4
2015-Jul-03 18:31N 50°49' W 001°06'0 0.0
2015-Jul-03 17:31N 50°49' W 001°06'7 7.7
2015-Jul-03 16:33N 50°42' W 001°03'1616.3
2015-Jul-03 15:34N 50°28' W 001°18'1716.9
2015-Jul-03 14:34N 50°14' W 001°33'1716.5
2015-Jul-03 13:33N 50°00' W 001°46'1716.6
2015-Jul-03 12:34N 49°46' W 001°60'2116.9
2015-Jul-03 11:18N 49°27' W 002°14'1519.9
2015-Jul-03 10:31N 49°13' W 002°24'2120.5
2015-Jul-03 09:30N 48°53' W 002°18'18 8.0
2015-Jul-03 07:17N 48°38' W 002°02'6 3.2
2015-Jul-03 05:32N 48°43' W 002°07'1818.1
2015-Jul-03 04:33N 48°58' W 002°22'1414.0
2015-Jul-03 03:33N 49°12' W 002°23'1414.1
2015-Jul-03 02:33N 49°25' W 002°16'1515.3
2015-Jul-03 01:32N 49°39' W 002°06'1615.9
2015-Jul-03 00:34N 49°53' W 001°55'1716.6
2015-Jul-02 23:33N 50°07' W 001°40'1615.6
2015-Jul-02 22:33N 50°19' W 001°26'1414.5
2015-Jul-02 21:34N 50°31' W 001°13'1312.9
2015-Jul-02 20:34N 50°42' W 001°03'7 6.5
2015-Jul-02 19:31N 50°49' W 001°06'0 0.0
2015-Jul-02 18:31N 50°49' W 001°06'0 0.5
2015-Jul-02 17:33N 50°49' W 001°06'1313.0
2015-Jul-02 16:33N 50°36' W 001°08'3917.8
2015-Jul-02 14:20N 50°06' W 001°49'1317.1
2015-Jul-02 13:33N 49°54' W 001°57'42 4.1
2015-Jul-02 03:24N 49°15' W 002°21'1112.5
2015-Jul-02 02:32N 49°25' W 002°15'1914.6
2015-Jul-02 01:15N 49°42' W 002°04'1214.4
2015-Jul-02 00:26N 49°53' W 001°57'1213.6
2015-Jul-01 23:33N 50°03' W 001°46'1615.7
2015-Jul-01 22:32N 50°16' W 001°30'1414.6
2015-Jul-01 21:33N 50°27' W 001°17'1313.3
2015-Jul-01 20:33N 50°38' W 001°06'1010.3
2015-Jul-01 19:33N 50°49' W 001°06'0 0.1
2015-Jul-01 18:33N 50°49' W 001°06'0 0.0
2015-Jul-01 17:33N 50°49' W 001°06'0 0.0
2015-Jul-01 16:33N 50°49' W 001°06'0 0.0
2015-Jul-01 15:33N 50°49' W 001°06'0 0.0
2015-Jul-01 14:33N 50°49' W 001°06'0 0.0
2015-Jul-01 13:33N 50°49' W 001°06'0 0.0
2015-Jul-01 12:30N 50°49' W 001°06'0 0.0
2015-Jul-01 11:33N 50°49' W 001°06'0 0.0
2015-Jul-01 10:33N 50°49' W 001°06'0 0.0
2015-Jul-01 09:33N 50°49' W 001°06'0 0.0
2015-Jul-01 08:33N 50°49' W 001°06'0 0.0
2015-Jul-01 07:33N 50°49' W 001°06'0 0.2
2015-Jul-01 06:33N 50°49' W 001°06'1111.2
2015-Jul-01 05:33N 50°37' W 001°06'1413.7
2015-Jul-01 04:33N 50°26' W 001°17'108 7.1
2015-Jun-30 13:21N 48°45' W 002°19'0 0.2
2015-Jun-30 12:33N 48°45' W 002°19'3 1.6
2015-Jun-30 10:33N 48°44' W 002°14'2 2.1
2015-Jun-30 09:33N 48°44' W 002°11'4 3.9
2015-Jun-30 08:33N 48°42' W 002°06'4 1.9
2015-Jun-30 06:20N 48°38' W 002°02'6 7.8
2015-Jun-30 05:33N 48°43' W 002°07'1717.5
2015-Jun-30 04:33N 48°58' W 002°21'1413.8
2015-Jun-30 03:33N 49°12' W 002°22'1010.3
2015-Jun-30 02:34N 49°22' W 002°18'1211.7
2015-Jun-30 01:33N 49°33' W 002°11'1413.7
2015-Jun-30 00:33N 49°45' W 002°02'1413.9
2015-Jun-29 23:33N 49°56' W 001°49'1615.7
2015-Jun-29 22:33N 50°10' W 001°37'1616.5
2015-Jun-29 21:33N 50°23' W 001°22'1515.3
2015-Jun-29 20:33N 50°36' W 001°08'1212.1
2015-Jun-29 19:33N 50°48' W 001°07'1 0.5
2015-Jun-29 17:32N 50°49' W 001°06'4 4.2
2015-Jun-29 16:33N 50°45' W 001°05'1716.6
2015-Jun-29 15:33N 50°29' W 001°15'2019.6
2015-Jun-29 14:33N 50°13' W 001°33'1918.7
2015-Jun-29 13:33N 49°57' W 001°48'5617.1
2015-Jun-29 10:15N 49°05' W 002°20'1419.1
2015-Jun-29 09:32N 48°51' W 002°17'1615.0
2015-Jun-29 08:26N 48°38' W 002°02'0 0.0
2015-Jun-29 07:26N 48°38' W 002°02'0 0.0
2015-Jun-29 06:32N 48°38' W 002°02'7 7.0
2015-Jun-29 05:32N 48°44' W 002°08'1918.4
2015-Jun-29 04:31N 49°00' W 002°22'1312.5
2015-Jun-29 03:29N 49°13' W 002°22'1010.6
2015-Jun-29 02:33N 49°23' W 002°18'1211.2
2015-Jun-29 01:31N 49°33' W 002°11'1313.0
2015-Jun-29 00:31N 49°45' W 002°01'1313.8
2015-Jun-28 23:33N 49°56' W 001°50'1414.6
2015-Jun-28 22:33N 50°08' W 001°37'1915.1
2015-Jun-28 21:19N 50°24' W 001°21'1114.1
2015-Jun-28 20:34N 50°32' W 001°12'1313.3
2015-Jun-28 19:33N 50°45' W 001°05'4 3.5
2015-Jun-28 18:32N 50°49' W 001°06'0 0.0
2015-Jun-28 17:31N 50°49' W 001°06'2 2.5
2015-Jun-28 16:33N 50°46' W 001°05'1514.9
2015-Jun-28 15:33N 50°32' W 001°12'2019.3
2015-Jun-28 14:31N 50°15' W 001°29'1919.1
2015-Jun-28 13:30N 49°59' W 001°46'8111.2
2015-Jun-28 06:16N 48°38' W 002°02'7 9.6
2015-Jun-28 05:30N 48°44' W 002°09'1717.8
2015-Jun-28 04:32N 48°59' W 002°22'1613.8
2015-Jun-28 03:23N 49°15' W 002°21'1010.2
2015-Jun-28 02:27N 49°24' W 002°16'1010.4
2015-Jun-28 01:32N 49°33' W 002°10'1111.1
2015-Jun-28 00:32N 49°43' W 002°04'1515.6
2015-Jun-27 23:33N 49°55' W 001°50'1616.3
2015-Jun-27 22:34N 50°09' W 001°37'1313.3
2015-Jun-27 21:33N 50°20' W 001°25'1615.7
2015-Jun-27 20:33N 50°33' W 001°11'1413.9
2015-Jun-27 19:33N 50°46' W 001°06'2 2.2
2015-Jun-27 18:32N 50°49' W 001°06'0 0.0
2015-Jun-27 17:33N 50°49' W 001°06'3 2.8
2015-Jun-27 16:33N 50°46' W 001°05'1414.3
2015-Jun-27 15:34N 50°32' W 001°12'1818.5
2015-Jun-27 14:34N 50°17' W 001°29'2018.7
2015-Jun-27 13:28N 50°00' W 001°46'44 4.1
2015-Jun-27 02:34N 49°21' W 002°19'10 9.5
2015-Jun-27 01:33N 49°30' W 002°12'1812.0
2015-Jun-27 00:06N 49°46' W 002°01'5615.9
2015-Jun-26 20:33N 50°32' W 001°12'1413.8
2015-Jun-26 19:34N 50°46' W 001°05'3 3.0
2015-Jun-26 18:32N 50°49' W 001°06'0 0.0
2015-Jun-26 17:32N 50°49' W 001°06'2 2.0
2015-Jun-26 16:33N 50°47' W 001°06'1515.2
2015-Jun-26 15:33N 50°32' W 001°12'2518.3
2015-Jun-26 14:12N 50°11' W 001°33'1117.8
2015-Jun-26 13:34N 50°02' W 001°43'4018.8
2015-Jun-26 11:24N 49°27' W 002°15'3817.9
2015-Jun-26 09:18N 48°49' W 002°15'1318.1
2015-Jun-26 08:33N 48°39' W 002°02'0 0.2
2015-Jun-26 07:14N 48°38' W 002°02'0 0.0
2015-Jun-26 06:14N 48°38' W 002°02'6 8.5
2015-Jun-26 05:33N 48°43' W 002°08'1616.1
2015-Jun-26 04:33N 48°56' W 002°21'1414.1
2015-Jun-26 03:33N 49°10' W 002°22'1413.6
2015-Jun-26 02:33N 49°24' W 002°18'1613.2
2015-Jun-26 01:21N 49°38' W 002°07'1012.1
2015-Jun-26 00:30N 49°47' W 001°60'1314.0
2015-Jun-25 23:32N 49°58' W 001°48'1515.0
2015-Jun-25 22:33N 50°10' W 001°35'1715.5
2015-Jun-25 21:27N 50°24' W 001°20'1516.3
2015-Jun-25 20:33N 50°37' W 001°08'1212.0
2015-Jun-25 19:34N 50°49' W 001°07'1 0.6
2015-Jun-25 18:32N 50°49' W 001°06'0 0.0
2015-Jun-25 17:32N 50°49' W 001°06'3 2.9
2015-Jun-25 16:33N 50°46' W 001°05'1514.9
2015-Jun-25 15:33N 50°32' W 001°13'1717.0
2015-Jun-25 14:33N 50°18' W 001°27'1717.3
2015-Jun-25 13:33N 50°03' W 001°42'1817.8
2015-Jun-25 12:33N 49°48' W 001°57'2219.0
2015-Jun-25 11:25N 49°26' W 001°58'1618.1
2015-Jun-25 10:31N 49°10' W 001°52'1616.7
2015-Jun-25 09:33N 48°55' W 001°58'12 3.1
2015-Jun-25 05:31N 48°44' W 002°07'1717.1
2015-Jun-25 04:32N 48°57' W 002°22'1411.8
2015-Jun-25 03:22N 49°11' W 002°22'1113.5
2015-Jun-25 02:33N 49°22' W 002°19'3112.9
2015-Jun-25 00:09N 49°50' W 001°59'1513.7
2015-Jun-24 23:06N 50°03' W 001°47'1014.1
2015-Jun-24 22:24N 50°10' W 001°36'1416.2
2015-Jun-24 21:33N 50°20' W 001°24'  
Track history (hours):
 
Tides and Currents Weather Stations Pressure Air Temp Water Temp Dewpoint Dewpoint Depression Visibility Wind Speed Wind Dir Waves Ship Positions

Bretagne

Operator: Brittany Ferries

Last reported at 2015-Jul-04 21:33 UTC. Time now 2015-Jul-04 22:26 UTC.
Position N 50°27' W 001°17'.

Length 151 m; beam 27 m.

Type: Ship. MMSI: 227286000.

Date/timePositionNaut miles runAvg speedWind from/ knotsBaromVisibWave heightAir tempDewpointWater temp
2015-Jul-04 21:33N 50°27' W 001°17'1212.2
2015-Jul-04 20:33N 50°38' W 001°07'1111.0
2015-Jul-04 19:33N 50°49' W 001°06'0 0.4
2015-Jul-04 18:30N 50°49' W 001°06'0 0.0
2015-Jul-04 17:32N 50°49' W 001°06'7 7.7
2015-Jul-04 16:33N 50°42' W 001°03'1716.7
2015-Jul-04 15:33N 50°26' W 001°12'10910.9
2015-Jul-04 05:32N 48°42' W 002°07'1819.0
2015-Jul-04 04:33N 48°58' W 002°21'1414.0
2015-Jul-04 03:33N 49°12' W 002°22'1413.9
2015-Jul-04 02:33N 49°25' W 002°15'1514.4
2015-Jul-04 01:30N 49°39' W 002°05'1314.3
2015-Jul-04 00:33N 49°51' W 001°57'4013.5
2015-Jul-03 21:33N 50°24' W 001°20'1313.3
2015-Jul-03 20:34N 50°35' W 001°09'1212.1
2015-Jul-03 19:33N 50°47' W 001°07'1 1.4
2015-Jul-03 18:31N 50°49' W 001°06'0 0.0
2015-Jul-03 17:31N 50°49' W 001°06'7 7.7
2015-Jul-03 16:33N 50°42' W 001°03'1616.3
2015-Jul-03 15:34N 50°28' W 001°18'1716.9
2015-Jul-03 14:34N 50°14' W 001°33'1716.5
2015-Jul-03 13:33N 50°00' W 001°46'1716.6
2015-Jul-03 12:34N 49°46' W 001°60'2116.9
2015-Jul-03 11:18N 49°27' W 002°14'1519.9
2015-Jul-03 10:31N 49°13' W 002°24'2120.5
2015-Jul-03 09:30N 48°53' W 002°18'18 8.0
2015-Jul-03 07:17N 48°38' W 002°02'6 3.2
2015-Jul-03 05:32N 48°43' W 002°07'1818.1
2015-Jul-03 04:33N 48°58' W 002°22'1414.0
2015-Jul-03 03:33N 49°12' W 002°23'1414.1
2015-Jul-03 02:33N 49°25' W 002°16'1515.3
2015-Jul-03 01:32N 49°39' W 002°06'1615.9
2015-Jul-03 00:34N 49°53' W 001°55'1716.6
2015-Jul-02 23:33N 50°07' W 001°40'1615.6
2015-Jul-02 22:33N 50°19' W 001°26'1414.5
2015-Jul-02 21:34N 50°31' W 001°13'1312.9
2015-Jul-02 20:34N 50°42' W 001°03'7 6.5
2015-Jul-02 19:31N 50°49' W 001°06'0 0.0
2015-Jul-02 18:31N 50°49' W 001°06'0 0.5
2015-Jul-02 17:33N 50°49' W 001°06'1313.0
2015-Jul-02 16:33N 50°36' W 001°08'3917.8
2015-Jul-02 14:20N 50°06' W 001°49'1317.1
2015-Jul-02 13:33N 49°54' W 001°57'42 4.1
2015-Jul-02 03:24N 49°15' W 002°21'1112.5
2015-Jul-02 02:32N 49°25' W 002°15'1914.6
2015-Jul-02 01:15N 49°42' W 002°04'1214.4
2015-Jul-02 00:26N 49°53' W 001°57'1213.6
2015-Jul-01 23:33N 50°03' W 001°46'1615.7
2015-Jul-01 22:32N 50°16' W 001°30'1414.6
2015-Jul-01 21:33N 50°27' W 001°17'1313.3
2015-Jul-01 20:33N 50°38' W 001°06'1010.3
2015-Jul-01 19:33N 50°49' W 001°06'0 0.1
2015-Jul-01 18:33N 50°49' W 001°06'0 0.0
2015-Jul-01 17:33N 50°49' W 001°06'0 0.0
2015-Jul-01 16:33N 50°49' W 001°06'0 0.0
2015-Jul-01 15:33N 50°49' W 001°06'0 0.0
2015-Jul-01 14:33N 50°49' W 001°06'0 0.0
2015-Jul-01 13:33N 50°49' W 001°06'0 0.0
2015-Jul-01 12:30N 50°49' W 001°06'0 0.0
2015-Jul-01 11:33N 50°49' W 001°06'0 0.0
2015-Jul-01 10:33N 50°49' W 001°06'0 0.0
2015-Jul-01 09:33N 50°49' W 001°06'0 0.0
2015-Jul-01 08:33N 50°49' W 001°06'0 0.0
2015-Jul-01 07:33N 50°49' W 001°06'0 0.2
2015-Jul-01 06:33N 50°49' W 001°06'1111.2
2015-Jul-01 05:33N 50°37' W 001°06'1413.7
2015-Jul-01 04:33N 50°26' W 001°17'108 7.1
2015-Jun-30 13:21N 48°45' W 002°19'0 0.2
2015-Jun-30 12:33N 48°45' W 002°19'3 1.6
2015-Jun-30 10:33N 48°44' W 002°14'2 2.1
2015-Jun-30 09:33N 48°44' W 002°11'4 3.9
2015-Jun-30 08:33N 48°42' W 002°06'4 1.9
2015-Jun-30 06:20N 48°38' W 002°02'6 7.8
2015-Jun-30 05:33N 48°43' W 002°07'1717.5
2015-Jun-30 04:33N 48°58' W 002°21'1413.8
2015-Jun-30 03:33N 49°12' W 002°22'1010.3
2015-Jun-30 02:34N 49°22' W 002°18'1211.7
2015-Jun-30 01:33N 49°33' W 002°11'1413.7
2015-Jun-30 00:33N 49°45' W 002°02'1413.9
2015-Jun-29 23:33N 49°56' W 001°49'1615.7
2015-Jun-29 22:33N 50°10' W 001°37'1616.5
2015-Jun-29 21:33N 50°23' W 001°22'1515.3
2015-Jun-29 20:33N 50°36' W 001°08'1212.1
2015-Jun-29 19:33N 50°48' W 001°07'1 0.5
2015-Jun-29 17:32N 50°49' W 001°06'4 4.2
2015-Jun-29 16:33N 50°45' W 001°05'1716.6
2015-Jun-29 15:33N 50°29' W 001°15'2019.6
2015-Jun-29 14:33N 50°13' W 001°33'1918.7
2015-Jun-29 13:33N 49°57' W 001°48'5617.1
2015-Jun-29 10:15N 49°05' W 002°20'1419.1
2015-Jun-29 09:32N 48°51' W 002°17'1615.0
2015-Jun-29 08:26N 48°38' W 002°02'0 0.0
2015-Jun-29 07:26N 48°38' W 002°02'0 0.0
2015-Jun-29 06:32N 48°38' W 002°02'7 7.0
2015-Jun-29 05:32N 48°44' W 002°08'1918.4
2015-Jun-29 04:31N 49°00' W 002°22'1312.5
2015-Jun-29 03:29N 49°13' W 002°22'1010.6
2015-Jun-29 02:33N 49°23' W 002°18'1211.2
2015-Jun-29 01:31N 49°33' W 002°11'1313.0
2015-Jun-29 00:31N 49°45' W 002°01'1313.8
2015-Jun-28 23:33N 49°56' W 001°50'1414.6
2015-Jun-28 22:33N 50°08' W 001°37'1915.1
2015-Jun-28 21:19N 50°24' W 001°21'1114.1
2015-Jun-28 20:34N 50°32' W 001°12'1313.3
2015-Jun-28 19:33N 50°45' W 001°05'4 3.5
2015-Jun-28 18:32N 50°49' W 001°06'0 0.0
2015-Jun-28 17:31N 50°49' W 001°06'2 2.5
2015-Jun-28 16:33N 50°46' W 001°05'1514.9
2015-Jun-28 15:33N 50°32' W 001°12'2019.3
2015-Jun-28 14:31N 50°15' W 001°29'1919.1
2015-Jun-28 13:30N 49°59' W 001°46'8111.2
2015-Jun-28 06:16N 48°38' W 002°02'7 9.6
2015-Jun-28 05:30N 48°44' W 002°09'1717.8
2015-Jun-28 04:32N 48°59' W 002°22'1613.8
2015-Jun-28 03:23N 49°15' W 002°21'1010.2
2015-Jun-28 02:27N 49°24' W 002°16'1010.4
2015-Jun-28 01:32N 49°33' W 002°10'1111.1
2015-Jun-28 00:32N 49°43' W 002°04'1515.6
2015-Jun-27 23:33N 49°55' W 001°50'1616.3
2015-Jun-27 22:34N 50°09' W 001°37'1313.3
2015-Jun-27 21:33N 50°20' W 001°25'1615.7
2015-Jun-27 20:33N 50°33' W 001°11'1413.9
2015-Jun-27 19:33N 50°46' W 001°06'2 2.2
2015-Jun-27 18:32N 50°49' W 001°06'0 0.0
2015-Jun-27 17:33N 50°49' W 001°06'3 2.8
2015-Jun-27 16:33N 50°46' W 001°05'1414.3
2015-Jun-27 15:34N 50°32' W 001°12'1818.5
2015-Jun-27 14:34N 50°17' W 001°29'2018.7
2015-Jun-27 13:28N 50°00' W 001°46'44 4.1
2015-Jun-27 02:34N 49°21' W 002°19'10 9.5
2015-Jun-27 01:33N 49°30' W 002°12'1812.0
2015-Jun-27 00:06N 49°46' W 002°01'5615.9
2015-Jun-26 20:33N 50°32' W 001°12'1413.8
2015-Jun-26 19:34N 50°46' W 001°05'3 3.0
2015-Jun-26 18:32N 50°49' W 001°06'0 0.0
2015-Jun-26 17:32N 50°49' W 001°06'2 2.0
2015-Jun-26 16:33N 50°47' W 001°06'1515.2
2015-Jun-26 15:33N 50°32' W 001°12'2518.3
2015-Jun-26 14:12N 50°11' W 001°33'1117.8
2015-Jun-26 13:34N 50°02' W 001°43'4018.8
2015-Jun-26 11:24N 49°27' W 002°15'3817.9
2015-Jun-26 09:18N 48°49' W 002°15'1318.1
2015-Jun-26 08:33N 48°39' W 002°02'0 0.2
2015-Jun-26 07:14N 48°38' W 002°02'0 0.0
2015-Jun-26 06:14N 48°38' W 002°02'6 8.5
2015-Jun-26 05:33N 48°43' W 002°08'1616.1
2015-Jun-26 04:33N 48°56' W 002°21'1414.1
2015-Jun-26 03:33N 49°10' W 002°22'1413.6
2015-Jun-26 02:33N 49°24' W 002°18'1613.2
2015-Jun-26 01:21N 49°38' W 002°07'1012.1
2015-Jun-26 00:30N 49°47' W 001°60'1314.0
2015-Jun-25 23:32N 49°58' W 001°48'1515.0
2015-Jun-25 22:33N 50°10' W 001°35'1715.5
2015-Jun-25 21:27N 50°24' W 001°20'1516.3
2015-Jun-25 20:33N 50°37' W 001°08'1212.0
2015-Jun-25 19:34N 50°49' W 001°07'1 0.6
2015-Jun-25 18:32N 50°49' W 001°06'0 0.0
2015-Jun-25 17:32N 50°49' W 001°06'3 2.9
2015-Jun-25 16:33N 50°46' W 001°05'1514.9
2015-Jun-25 15:33N 50°32' W 001°13'1717.0
2015-Jun-25 14:33N 50°18' W 001°27'1717.3
2015-Jun-25 13:33N 50°03' W 001°42'1817.8
2015-Jun-25 12:33N 49°48' W 001°57'2219.0
2015-Jun-25 11:25N 49°26' W 001°58'1618.1
2015-Jun-25 10:31N 49°10' W 001°52'1616.7
2015-Jun-25 09:33N 48°55' W 001°58'12 3.1
2015-Jun-25 05:31N 48°44' W 002°07'1717.1
2015-Jun-25 04:32N 48°57' W 002°22'1411.8
2015-Jun-25 03:22N 49°11' W 002°22'1113.5
2015-Jun-25 02:33N 49°22' W 002°19'3112.9
2015-Jun-25 00:09N 49°50' W 001°59'1513.7
2015-Jun-24 23:06N 50°03' W 001°47'1014.1
2015-Jun-24 22:24N 50°10' W 001°36'1416.2
2015-Jun-24 21:33N 50°20' W 001°24'  

Dump ship's entire track history